sensor_id;sensor_type;location;lat;lon;timestamp;P1;durP1;ratioP1;P2;durP2;ratioP2
56037;SDS011;41907;47.848;9.000;2023-03-05T00:02:09;53.50;;;20.73;;
56037;SDS011;41907;47.848;9.000;2023-03-05T00:04:34;43.58;;;19.08;;
56037;SDS011;41907;47.848;9.000;2023-03-05T00:07:00;50.17;;;19.02;;
56037;SDS011;41907;47.848;9.000;2023-03-05T00:09:25;42.70;;;18.23;;
56037;SDS011;41907;47.848;9.000;2023-03-05T00:11:50;44.08;;;18.42;;
56037;SDS011;41907;47.848;9.000;2023-03-05T00:14:16;41.90;;;18.45;;
56037;SDS011;41907;47.848;9.000;2023-03-05T00:16:41;42.80;;;17.45;;
56037;SDS011;41907;47.848;9.000;2023-03-05T00:19:07;45.50;;;18.25;;
56037;SDS011;41907;47.848;9.000;2023-03-05T00:21:34;46.45;;;17.55;;
56037;SDS011;41907;47.848;9.000;2023-03-05T00:24:02;39.92;;;17.98;;
56037;SDS011;41907;47.848;9.000;2023-03-05T00:26:31;44.50;;;18.15;;
56037;SDS011;41907;47.848;9.000;2023-03-05T00:29:00;45.95;;;17.60;;
56037;SDS011;41907;47.848;9.000;2023-03-05T00:31:26;46.22;;;20.40;;
56037;SDS011;41907;47.848;9.000;2023-03-05T00:33:55;50.17;;;19.70;;
56037;SDS011;41907;47.848;9.000;2023-03-05T00:36:22;43.78;;;19.00;;
56037;SDS011;41907;47.848;9.000;2023-03-05T00:38:48;46.50;;;18.40;;
56037;SDS011;41907;47.848;9.000;2023-03-05T00:41:13;42.05;;;17.80;;
56037;SDS011;41907;47.848;9.000;2023-03-05T00:43:39;42.05;;;17.73;;
56037;SDS011;41907;47.848;9.000;2023-03-05T00:46:04;41.92;;;18.58;;
56037;SDS011;41907;47.848;9.000;2023-03-05T00:48:29;45.53;;;19.35;;
56037;SDS011;41907;47.848;9.000;2023-03-05T00:50:55;45.95;;;18.45;;
56037;SDS011;41907;47.848;9.000;2023-03-05T00:53:21;47.10;;;20.55;;
56037;SDS011;41907;47.848;9.000;2023-03-05T00:55:46;45.13;;;19.45;;
56037;SDS011;41907;47.848;9.000;2023-03-05T00:58:12;40.67;;;18.05;;
56037;SDS011;41907;47.848;9.000;2023-03-05T01:00:37;44.17;;;18.48;;
56037;SDS011;41907;47.848;9.000;2023-03-05T01:03:03;48.22;;;20.27;;
56037;SDS011;41907;47.848;9.000;2023-03-05T01:05:28;49.03;;;19.30;;
56037;SDS011;41907;47.848;9.000;2023-03-05T01:07:54;47.60;;;19.85;;
56037;SDS011;41907;47.848;9.000;2023-03-05T01:10:21;40.03;;;18.00;;
56037;SDS011;41907;47.848;9.000;2023-03-05T01:12:47;51.47;;;18.73;;
56037;SDS011;41907;47.848;9.000;2023-03-05T01:15:13;46.22;;;19.27;;
56037;SDS011;41907;47.848;9.000;2023-03-05T01:17:39;52.00;;;20.63;;
56037;SDS011;41907;47.848;9.000;2023-03-05T01:20:04;51.85;;;20.15;;
56037;SDS011;41907;47.848;9.000;2023-03-05T01:22:30;49.95;;;20.83;;
56037;SDS011;41907;47.848;9.000;2023-03-05T01:24:55;45.00;;;19.23;;
56037;SDS011;41907;47.848;9.000;2023-03-05T01:27:21;45.85;;;19.58;;
56037;SDS011;41907;47.848;9.000;2023-03-05T01:29:46;54.38;;;21.00;;
56037;SDS011;41907;47.848;9.000;2023-03-05T01:32:12;50.65;;;19.80;;
56037;SDS011;41907;47.848;9.000;2023-03-05T01:34:37;48.88;;;21.80;;
56037;SDS011;41907;47.848;9.000;2023-03-05T01:37:03;53.35;;;20.65;;
56037;SDS011;41907;47.848;9.000;2023-03-05T01:39:28;42.83;;;20.10;;
56037;SDS011;41907;47.848;9.000;2023-03-05T01:41:54;49.35;;;20.60;;
56037;SDS011;41907;47.848;9.000;2023-03-05T01:44:23;50.45;;;21.50;;
56037;SDS011;41907;47.848;9.000;2023-03-05T01:46:50;45.38;;;20.17;;
56037;SDS011;41907;47.848;9.000;2023-03-05T01:49:17;52.55;;;20.42;;
56037;SDS011;41907;47.848;9.000;2023-03-05T01:51:59;49.08;;;19.48;;
56037;SDS011;41907;47.848;9.000;2023-03-05T01:54:34;49.88;;;20.48;;
56037;SDS011;41907;47.848;9.000;2023-03-05T01:57:06;54.28;;;21.30;;
56037;SDS011;41907;47.848;9.000;2023-03-05T01:59:36;51.38;;;21.98;;
56037;SDS011;41907;47.848;9.000;2023-03-05T02:02:04;46.38;;;19.48;;
56037;SDS011;41907;47.848;9.000;2023-03-05T02:04:34;51.70;;;21.13;;
56037;SDS011;41907;47.848;9.000;2023-03-05T02:07:05;49.22;;;19.90;;
56037;SDS011;41907;47.848;9.000;2023-03-05T02:09:31;50.70;;;21.08;;
56037;SDS011;41907;47.848;9.000;2023-03-05T02:11:56;45.78;;;20.33;;
56037;SDS011;41907;47.848;9.000;2023-03-05T02:14:22;44.78;;;18.13;;
56037;SDS011;41907;47.848;9.000;2023-03-05T02:16:49;48.67;;;20.95;;
56037;SDS011;41907;47.848;9.000;2023-03-05T02:19:15;46.67;;;19.92;;
56037;SDS011;41907;47.848;9.000;2023-03-05T02:21:42;50.00;;;20.23;;
56037;SDS011;41907;47.848;9.000;2023-03-05T02:24:32;46.28;;;20.38;;
56037;SDS011;41907;47.848;9.000;2023-03-05T02:26:59;53.85;;;20.30;;
56037;SDS011;41907;47.848;9.000;2023-03-05T02:29:25;47.95;;;21.05;;
56037;SDS011;41907;47.848;9.000;2023-03-05T02:31:54;47.08;;;19.85;;
56037;SDS011;41907;47.848;9.000;2023-03-05T02:34:20;51.83;;;20.40;;
56037;SDS011;41907;47.848;9.000;2023-03-05T02:36:46;51.47;;;19.98;;
56037;SDS011;41907;47.848;9.000;2023-03-05T02:39:14;49.88;;;19.63;;
56037;SDS011;41907;47.848;9.000;2023-03-05T02:41:40;48.60;;;19.85;;
56037;SDS011;41907;47.848;9.000;2023-03-05T02:44:05;52.70;;;21.25;;
56037;SDS011;41907;47.848;9.000;2023-03-05T02:46:31;44.85;;;19.10;;
56037;SDS011;41907;47.848;9.000;2023-03-05T02:48:56;49.47;;;20.05;;
56037;SDS011;41907;47.848;9.000;2023-03-05T02:51:21;52.95;;;21.90;;
56037;SDS011;41907;47.848;9.000;2023-03-05T02:53:47;51.88;;;21.08;;
56037;SDS011;41907;47.848;9.000;2023-03-05T02:56:12;44.70;;;19.70;;
56037;SDS011;41907;47.848;9.000;2023-03-05T02:58:37;50.25;;;20.77;;
56037;SDS011;41907;47.848;9.000;2023-03-05T03:01:03;50.03;;;20.27;;
56037;SDS011;41907;47.848;9.000;2023-03-05T03:03:29;46.33;;;19.83;;
56037;SDS011;41907;47.848;9.000;2023-03-05T03:05:55;42.20;;;18.13;;
56037;SDS011;41907;47.848;9.000;2023-03-05T03:08:20;49.33;;;19.15;;
56037;SDS011;41907;47.848;9.000;2023-03-05T03:10:45;45.53;;;18.80;;
56037;SDS011;41907;47.848;9.000;2023-03-05T03:13:10;57.67;;;20.60;;
56037;SDS011;41907;47.848;9.000;2023-03-05T03:15:36;47.22;;;19.55;;
56037;SDS011;41907;47.848;9.000;2023-03-05T03:18:02;45.03;;;18.88;;
56037;SDS011;41907;47.848;9.000;2023-03-05T03:20:27;48.53;;;19.33;;
56037;SDS011;41907;47.848;9.000;2023-03-05T03:22:52;44.58;;;18.15;;
56037;SDS011;41907;47.848;9.000;2023-03-05T03:25:20;50.22;;;20.92;;
56037;SDS011;41907;47.848;9.000;2023-03-05T03:27:47;49.30;;;20.15;;
56037;SDS011;41907;47.848;9.000;2023-03-05T03:30:12;47.03;;;20.13;;
56037;SDS011;41907;47.848;9.000;2023-03-05T03:32:38;47.33;;;18.92;;
56037;SDS011;41907;47.848;9.000;2023-03-05T03:35:04;46.30;;;18.90;;
56037;SDS011;41907;47.848;9.000;2023-03-05T03:37:29;46.22;;;18.65;;
56037;SDS011;41907;47.848;9.000;2023-03-05T03:39:55;51.95;;;21.55;;
56037;SDS011;41907;47.848;9.000;2023-03-05T03:42:21;49.65;;;20.38;;
56037;SDS011;41907;47.848;9.000;2023-03-05T03:44:47;49.47;;;20.40;;
56037;SDS011;41907;47.848;9.000;2023-03-05T03:47:13;52.55;;;19.38;;
56037;SDS011;41907;47.848;9.000;2023-03-05T03:49:39;53.20;;;20.23;;
56037;SDS011;41907;47.848;9.000;2023-03-05T03:52:05;44.97;;;18.35;;
56037;SDS011;41907;47.848;9.000;2023-03-05T03:54:30;48.50;;;19.70;;
56037;SDS011;41907;47.848;9.000;2023-03-05T03:56:56;50.42;;;19.98;;
56037;SDS011;41907;47.848;9.000;2023-03-05T03:59:21;48.75;;;19.15;;
56037;SDS011;41907;47.848;9.000;2023-03-05T04:01:47;46.67;;;18.60;;
56037;SDS011;41907;47.848;9.000;2023-03-05T04:04:12;53.58;;;20.30;;
56037;SDS011;41907;47.848;9.000;2023-03-05T04:06:38;49.55;;;20.33;;
56037;SDS011;41907;47.848;9.000;2023-03-05T04:09:04;51.72;;;19.77;;
56037;SDS011;41907;47.848;9.000;2023-03-05T04:11:32;44.17;;;18.88;;
56037;SDS011;41907;47.848;9.000;2023-03-05T04:13:58;45.33;;;18.25;;
56037;SDS011;41907;47.848;9.000;2023-03-05T04:16:23;43.20;;;18.42;;
56037;SDS011;41907;47.848;9.000;2023-03-05T04:18:49;45.60;;;18.35;;
56037;SDS011;41907;47.848;9.000;2023-03-05T04:21:14;42.38;;;18.20;;
56037;SDS011;41907;47.848;9.000;2023-03-05T04:23:39;44.00;;;18.48;;
56037;SDS011;41907;47.848;9.000;2023-03-05T04:26:05;53.35;;;20.42;;
56037;SDS011;41907;47.848;9.000;2023-03-05T04:28:30;54.67;;;20.90;;
56037;SDS011;41907;47.848;9.000;2023-03-05T04:30:56;53.70;;;21.52;;
56037;SDS011;41907;47.848;9.000;2023-03-05T04:33:22;55.17;;;20.63;;
56037;SDS011;41907;47.848;9.000;2023-03-05T04:35:47;53.17;;;20.73;;
56037;SDS011;41907;47.848;9.000;2023-03-05T04:38:13;53.08;;;20.40;;
56037;SDS011;41907;47.848;9.000;2023-03-05T04:40:38;52.28;;;21.13;;
56037;SDS011;41907;47.848;9.000;2023-03-05T04:43:04;51.03;;;21.55;;
56037;SDS011;41907;47.848;9.000;2023-03-05T04:45:29;50.40;;;18.10;;
56037;SDS011;41907;47.848;9.000;2023-03-05T04:47:55;50.13;;;18.63;;
56037;SDS011;41907;47.848;9.000;2023-03-05T04:50:20;45.03;;;18.65;;
56037;SDS011;41907;47.848;9.000;2023-03-05T04:52:45;48.63;;;18.00;;
56037;SDS011;41907;47.848;9.000;2023-03-05T04:55:12;47.72;;;18.27;;
56037;SDS011;41907;47.848;9.000;2023-03-05T04:57:39;46.70;;;18.13;;
56037;SDS011;41907;47.848;9.000;2023-03-05T05:00:06;46.30;;;17.70;;
56037;SDS011;41907;47.848;9.000;2023-03-05T05:02:38;40.40;;;15.20;;
56037;SDS011;41907;47.848;9.000;2023-03-05T05:05:04;42.65;;;17.48;;
56037;SDS011;41907;47.848;9.000;2023-03-05T05:07:29;39.45;;;16.75;;
56037;SDS011;41907;47.848;9.000;2023-03-05T05:09:56;47.60;;;17.48;;
56037;SDS011;41907;47.848;9.000;2023-03-05T05:12:22;37.35;;;15.27;;
56037;SDS011;41907;47.848;9.000;2023-03-05T05:14:47;40.15;;;15.93;;
56037;SDS011;41907;47.848;9.000;2023-03-05T05:17:13;39.17;;;15.43;;
56037;SDS011;41907;47.848;9.000;2023-03-05T05:19:38;35.63;;;14.00;;
56037;SDS011;41907;47.848;9.000;2023-03-05T05:22:03;35.40;;;14.68;;
56037;SDS011;41907;47.848;9.000;2023-03-05T05:24:29;36.83;;;14.38;;
56037;SDS011;41907;47.848;9.000;2023-03-05T05:26:54;40.45;;;15.40;;
56037;SDS011;41907;47.848;9.000;2023-03-05T05:29:20;36.92;;;15.65;;
56037;SDS011;41907;47.848;9.000;2023-03-05T05:31:45;36.70;;;14.68;;
56037;SDS011;41907;47.848;9.000;2023-03-05T05:34:11;44.97;;;17.40;;
56037;SDS011;41907;47.848;9.000;2023-03-05T05:36:37;41.00;;;15.35;;
56037;SDS011;41907;47.848;9.000;2023-03-05T05:39:02;42.22;;;15.85;;
56037;SDS011;41907;47.848;9.000;2023-03-05T05:41:28;43.50;;;16.58;;
56037;SDS011;41907;47.848;9.000;2023-03-05T05:43:53;41.03;;;15.98;;
56037;SDS011;41907;47.848;9.000;2023-03-05T05:46:19;46.15;;;16.77;;
56037;SDS011;41907;47.848;9.000;2023-03-05T05:48:45;43.05;;;15.65;;
56037;SDS011;41907;47.848;9.000;2023-03-05T05:51:12;38.65;;;15.82;;
56037;SDS011;41907;47.848;9.000;2023-03-05T05:53:39;45.67;;;16.98;;
56037;SDS011;41907;47.848;9.000;2023-03-05T05:56:07;43.70;;;16.58;;
56037;SDS011;41907;47.848;9.000;2023-03-05T05:58:34;37.35;;;14.90;;
56037;SDS011;41907;47.848;9.000;2023-03-05T06:01:00;42.25;;;15.82;;
56037;SDS011;41907;47.848;9.000;2023-03-05T06:03:25;39.00;;;14.55;;
56037;SDS011;41907;47.848;9.000;2023-03-05T06:05:50;40.08;;;14.45;;
56037;SDS011;41907;47.848;9.000;2023-03-05T06:08:16;38.10;;;14.88;;
56037;SDS011;41907;47.848;9.000;2023-03-05T06:10:42;37.25;;;13.90;;
56037;SDS011;41907;47.848;9.000;2023-03-05T06:13:07;33.97;;;13.70;;
56037;SDS011;41907;47.848;9.000;2023-03-05T06:15:33;35.40;;;14.68;;
56037;SDS011;41907;47.848;9.000;2023-03-05T06:17:58;34.80;;;13.52;;
56037;SDS011;41907;47.848;9.000;2023-03-05T06:20:25;31.27;;;13.07;;
56037;SDS011;41907;47.848;9.000;2023-03-05T06:22:50;34.28;;;13.63;;
56037;SDS011;41907;47.848;9.000;2023-03-05T06:25:15;34.60;;;13.98;;
56037;SDS011;41907;47.848;9.000;2023-03-05T06:27:41;36.17;;;12.98;;
56037;SDS011;41907;47.848;9.000;2023-03-05T06:30:06;34.55;;;13.68;;
56037;SDS011;41907;47.848;9.000;2023-03-05T06:32:34;32.25;;;12.50;;
56037;SDS011;41907;47.848;9.000;2023-03-05T06:34:59;27.80;;;11.35;;
56037;SDS011;41907;47.848;9.000;2023-03-05T06:37:24;33.35;;;13.23;;
56037;SDS011;41907;47.848;9.000;2023-03-05T06:39:50;32.35;;;12.05;;
56037;SDS011;41907;47.848;9.000;2023-03-05T06:42:15;29.42;;;12.73;;
56037;SDS011;41907;47.848;9.000;2023-03-05T06:44:43;36.00;;;14.82;;
56037;SDS011;41907;47.848;9.000;2023-03-05T06:47:09;40.33;;;15.93;;
56037;SDS011;41907;47.848;9.000;2023-03-05T06:49:34;46.47;;;15.65;;
56037;SDS011;41907;47.848;9.000;2023-03-05T06:52:01;45.38;;;17.50;;
56037;SDS011;41907;47.848;9.000;2023-03-05T06:54:27;44.20;;;17.30;;
56037;SDS011;41907;47.848;9.000;2023-03-05T06:56:52;47.17;;;17.33;;
56037;SDS011;41907;47.848;9.000;2023-03-05T06:59:17;39.65;;;16.20;;
56037;SDS011;41907;47.848;9.000;2023-03-05T07:01:43;39.20;;;16.80;;
56037;SDS011;41907;47.848;9.000;2023-03-05T07:04:10;36.88;;;14.93;;
56037;SDS011;41907;47.848;9.000;2023-03-05T07:06:36;39.20;;;14.48;;
56037;SDS011;41907;47.848;9.000;2023-03-05T07:09:06;36.70;;;14.90;;
56037;SDS011;41907;47.848;9.000;2023-03-05T07:11:33;33.00;;;14.45;;
56037;SDS011;41907;47.848;9.000;2023-03-05T07:13:58;31.25;;;13.32;;
56037;SDS011;41907;47.848;9.000;2023-03-05T07:16:25;31.58;;;12.60;;
56037;SDS011;41907;47.848;9.000;2023-03-05T07:18:53;29.02;;;11.50;;
56037;SDS011;41907;47.848;9.000;2023-03-05T07:21:20;31.52;;;12.43;;
56037;SDS011;41907;47.848;9.000;2023-03-05T07:23:47;35.63;;;13.88;;
56037;SDS011;41907;47.848;9.000;2023-03-05T07:26:13;34.58;;;13.88;;
56037;SDS011;41907;47.848;9.000;2023-03-05T07:28:39;37.63;;;13.38;;
56037;SDS011;41907;47.848;9.000;2023-03-05T07:31:06;33.22;;;13.00;;
56037;SDS011;41907;47.848;9.000;2023-03-05T07:33:35;28.65;;;12.40;;
56037;SDS011;41907;47.848;9.000;2023-03-05T07:36:01;31.83;;;13.02;;
56037;SDS011;41907;47.848;9.000;2023-03-05T07:38:28;28.58;;;13.43;;
56037;SDS011;41907;47.848;9.000;2023-03-05T07:41:01;32.70;;;14.35;;
56037;SDS011;41907;47.848;9.000;2023-03-05T07:43:31;37.28;;;14.65;;
56037;SDS011;41907;47.848;9.000;2023-03-05T07:45:56;33.47;;;14.75;;
56037;SDS011;41907;47.848;9.000;2023-03-05T07:48:22;30.52;;;13.23;;
56037;SDS011;41907;47.848;9.000;2023-03-05T07:50:47;27.85;;;12.18;;
56037;SDS011;41907;47.848;9.000;2023-03-05T07:53:13;28.65;;;12.73;;
56037;SDS011;41907;47.848;9.000;2023-03-05T07:55:45;31.63;;;12.90;;
56037;SDS011;41907;47.848;9.000;2023-03-05T07:58:12;29.70;;;12.85;;
56037;SDS011;41907;47.848;9.000;2023-03-05T08:00:37;29.20;;;12.43;;
56037;SDS011;41907;47.848;9.000;2023-03-05T08:03:03;35.85;;;14.70;;
56037;SDS011;41907;47.848;9.000;2023-03-05T08:05:29;29.63;;;13.52;;
56037;SDS011;41907;47.848;9.000;2023-03-05T08:07:54;33.45;;;14.68;;
56037;SDS011;41907;47.848;9.000;2023-03-05T08:10:20;32.60;;;14.88;;
56037;SDS011;41907;47.848;9.000;2023-03-05T08:12:45;36.60;;;14.90;;
56037;SDS011;41907;47.848;9.000;2023-03-05T08:15:10;33.97;;;14.98;;
56037;SDS011;41907;47.848;9.000;2023-03-05T08:17:36;32.55;;;13.20;;
56037;SDS011;41907;47.848;9.000;2023-03-05T08:20:02;31.85;;;14.38;;
56037;SDS011;41907;47.848;9.000;2023-03-05T08:22:31;34.00;;;13.20;;
56037;SDS011;41907;47.848;9.000;2023-03-05T08:24:58;33.05;;;13.38;;
56037;SDS011;41907;47.848;9.000;2023-03-05T08:27:24;25.35;;;12.45;;
56037;SDS011;41907;47.848;9.000;2023-03-05T08:29:49;24.65;;;11.45;;
56037;SDS011;41907;47.848;9.000;2023-03-05T08:32:14;19.60;;;9.75;;
56037;SDS011;41907;47.848;9.000;2023-03-05T08:34:39;27.20;;;11.77;;
56037;SDS011;41907;47.848;9.000;2023-03-05T08:37:05;25.45;;;10.70;;
56037;SDS011;41907;47.848;9.000;2023-03-05T08:39:33;27.13;;;11.35;;
56037;SDS011;41907;47.848;9.000;2023-03-05T08:41:58;24.95;;;10.82;;
56037;SDS011;41907;47.848;9.000;2023-03-05T08:44:23;26.02;;;12.25;;
56037;SDS011;41907;47.848;9.000;2023-03-05T08:46:48;31.95;;;12.10;;
56037;SDS011;41907;47.848;9.000;2023-03-05T08:49:14;28.13;;;12.02;;
56037;SDS011;41907;47.848;9.000;2023-03-05T08:51:39;33.90;;;13.48;;
56037;SDS011;41907;47.848;9.000;2023-03-05T08:54:05;26.73;;;12.90;;
56037;SDS011;41907;47.848;9.000;2023-03-05T08:56:32;26.38;;;12.48;;
56037;SDS011;41907;47.848;9.000;2023-03-05T08:58:58;27.30;;;11.55;;
56037;SDS011;41907;47.848;9.000;2023-03-05T09:01:24;25.95;;;13.05;;
56037;SDS011;41907;47.848;9.000;2023-03-05T09:03:49;25.23;;;11.52;;
56037;SDS011;41907;47.848;9.000;2023-03-05T09:06:14;25.17;;;12.52;;
56037;SDS011;41907;47.848;9.000;2023-03-05T09:08:40;26.58;;;12.30;;
56037;SDS011;41907;47.848;9.000;2023-03-05T09:11:07;28.75;;;12.43;;
56037;SDS011;41907;47.848;9.000;2023-03-05T09:13:34;24.95;;;11.35;;
56037;SDS011;41907;47.848;9.000;2023-03-05T09:16:00;23.80;;;12.00;;
56037;SDS011;41907;47.848;9.000;2023-03-05T09:18:28;22.48;;;9.75;;
56037;SDS011;41907;47.848;9.000;2023-03-05T09:23:20;15.75;;;8.30;;
56037;SDS011;41907;47.848;9.000;2023-03-05T09:25:45;16.50;;;8.38;;
56037;SDS011;41907;47.848;9.000;2023-03-05T09:28:11;16.17;;;8.18;;
56037;SDS011;41907;47.848;9.000;2023-03-05T09:30:37;14.48;;;7.70;;
56037;SDS011;41907;47.848;9.000;2023-03-05T09:33:02;13.82;;;8.07;;
56037;SDS011;41907;47.848;9.000;2023-03-05T09:35:28;12.20;;;6.95;;
56037;SDS011;41907;47.848;9.000;2023-03-05T09:37:54;10.30;;;6.38;;
56037;SDS011;41907;47.848;9.000;2023-03-05T09:40:20;11.98;;;5.90;;
56037;SDS011;41907;47.848;9.000;2023-03-05T09:45:16;7.95;;;5.32;;
56037;SDS011;41907;47.848;9.000;2023-03-05T09:48:01;7.05;;;4.28;;
56037;SDS011;41907;47.848;9.000;2023-03-05T09:50:47;10.50;;;5.03;;
56037;SDS011;41907;47.848;9.000;2023-03-05T09:53:20;7.03;;;4.40;;
56037;SDS011;41907;47.848;9.000;2023-03-05T09:56:09;8.40;;;5.38;;
56037;SDS011;41907;47.848;9.000;2023-03-05T09:58:48;9.48;;;4.97;;
56037;SDS011;41907;47.848;9.000;2023-03-05T10:04:03;8.90;;;5.53;;
56037;SDS011;41907;47.848;9.000;2023-03-05T10:06:35;7.63;;;4.93;;
56037;SDS011;41907;47.848;9.000;2023-03-05T10:10:09;7.63;;;4.80;;
56037;SDS011;41907;47.848;9.000;2023-03-05T10:14:51;5.25;;;3.58;;
56037;SDS011;41907;47.848;9.000;2023-03-05T10:23:14;11.35;;;6.35;;
56037;SDS011;41907;47.848;9.000;2023-03-05T10:26:14;8.50;;;5.55;;
56037;SDS011;41907;47.848;9.000;2023-03-05T10:40:16;6.35;;;4.53;;
56037;SDS011;41907;47.848;9.000;2023-03-05T10:43:13;7.50;;;5.00;;
56037;SDS011;41907;47.848;9.000;2023-03-05T10:45:43;6.57;;;4.70;;
56037;SDS011;41907;47.848;9.000;2023-03-05T10:48:25;7.00;;;4.30;;
56037;SDS011;41907;47.848;9.000;2023-03-05T10:56:43;7.13;;;5.05;;
56037;SDS011;41907;47.848;9.000;2023-03-05T10:59:08;6.72;;;5.30;;
56037;SDS011;41907;47.848;9.000;2023-03-05T11:01:34;6.45;;;4.50;;
56037;SDS011;41907;47.848;9.000;2023-03-05T11:04:02;7.80;;;4.88;;
56037;SDS011;41907;47.848;9.000;2023-03-05T11:06:31;6.93;;;4.90;;
56037;SDS011;41907;47.848;9.000;2023-03-05T11:11:44;8.40;;;4.63;;
56037;SDS011;41907;47.848;9.000;2023-03-05T11:14:25;6.35;;;3.85;;
56037;SDS011;41907;47.848;9.000;2023-03-05T11:16:55;7.47;;;4.70;;
56037;SDS011;41907;47.848;9.000;2023-03-05T11:19:25;7.70;;;4.35;;
56037;SDS011;41907;47.848;9.000;2023-03-05T11:24:38;8.32;;;5.38;;
56037;SDS011;41907;47.848;9.000;2023-03-05T11:30:27;6.57;;;4.45;;
56037;SDS011;41907;47.848;9.000;2023-03-05T11:33:05;9.57;;;5.43;;
56037;SDS011;41907;47.848;9.000;2023-03-05T11:35:32;8.32;;;5.22;;
56037;SDS011;41907;47.848;9.000;2023-03-05T11:38:00;7.68;;;4.82;;
56037;SDS011;41907;47.848;9.000;2023-03-05T11:40:29;10.35;;;5.25;;
56037;SDS011;41907;47.848;9.000;2023-03-05T11:45:23;7.75;;;4.75;;
56037;SDS011;41907;47.848;9.000;2023-03-05T11:48:24;11.82;;;5.50;;
56037;SDS011;41907;47.848;9.000;2023-03-05T11:50:59;10.48;;;5.35;;
56037;SDS011;41907;47.848;9.000;2023-03-05T11:53:27;8.27;;;4.78;;
56037;SDS011;41907;47.848;9.000;2023-03-05T11:56:17;9.20;;;5.32;;
56037;SDS011;41907;47.848;9.000;2023-03-05T12:01:16;10.18;;;5.45;;
56037;SDS011;41907;47.848;9.000;2023-03-05T12:03:44;10.10;;;5.35;;
56037;SDS011;41907;47.848;9.000;2023-03-05T12:06:16;8.40;;;4.75;;
56037;SDS011;41907;47.848;9.000;2023-03-05T12:08:50;11.70;;;5.97;;
56037;SDS011;41907;47.848;9.000;2023-03-05T12:11:20;10.65;;;4.72;;
56037;SDS011;41907;47.848;9.000;2023-03-05T12:13:55;11.38;;;4.88;;
56037;SDS011;41907;47.848;9.000;2023-03-05T12:16:25;9.15;;;4.93;;
56037;SDS011;41907;47.848;9.000;2023-03-05T12:21:38;10.38;;;5.05;;
56037;SDS011;41907;47.848;9.000;2023-03-05T12:31:51;6.93;;;4.53;;
56037;SDS011;41907;47.848;9.000;2023-03-05T12:34:33;7.72;;;4.38;;
56037;SDS011;41907;47.848;9.000;2023-03-05T12:37:55;9.07;;;4.47;;
56037;SDS011;41907;47.848;9.000;2023-03-05T12:47:41;7.47;;;4.40;;
56037;SDS011;41907;47.848;9.000;2023-03-05T12:50:56;8.68;;;4.35;;
56037;SDS011;41907;47.848;9.000;2023-03-05T12:52:57;9.93;;;4.88;;
56037;SDS011;41907;47.848;9.000;2023-03-05T13:00:51;12.50;;;5.90;;
56037;SDS011;41907;47.848;9.000;2023-03-05T13:03:25;9.32;;;4.40;;
56037;SDS011;41907;47.848;9.000;2023-03-05T13:05:56;8.75;;;5.30;;
56037;SDS011;41907;47.848;9.000;2023-03-05T13:08:24;8.55;;;4.25;;
56037;SDS011;41907;47.848;9.000;2023-03-05T13:11:01;7.85;;;4.25;;
56037;SDS011;41907;47.848;9.000;2023-03-05T13:13:30;8.43;;;4.25;;
56037;SDS011;41907;47.848;9.000;2023-03-05T13:15:59;8.05;;;4.43;;
56037;SDS011;41907;47.848;9.000;2023-03-05T13:18:26;7.70;;;4.88;;
56037;SDS011;41907;47.848;9.000;2023-03-05T13:21:27;10.45;;;5.38;;
56037;SDS011;41907;47.848;9.000;2023-03-05T13:23:52;9.20;;;4.85;;
56037;SDS011;41907;47.848;9.000;2023-03-05T13:26:26;15.10;;;6.57;;
56037;SDS011;41907;47.848;9.000;2023-03-05T13:29:02;10.35;;;6.15;;
56037;SDS011;41907;47.848;9.000;2023-03-05T13:31:29;9.43;;;5.30;;
56037;SDS011;41907;47.848;9.000;2023-03-05T13:33:56;11.50;;;5.43;;
56037;SDS011;41907;47.848;9.000;2023-03-05T13:36:23;9.80;;;5.13;;
56037;SDS011;41907;47.848;9.000;2023-03-05T13:38:50;8.90;;;5.40;;
56037;SDS011;41907;47.848;9.000;2023-03-05T13:41:18;9.98;;;4.97;;
56037;SDS011;41907;47.848;9.000;2023-03-05T13:48:51;7.30;;;3.88;;
56037;SDS011;41907;47.848;9.000;2023-03-05T13:51:17;9.20;;;4.18;;
56037;SDS011;41907;47.848;9.000;2023-03-05T13:53:42;8.73;;;4.03;;
56037;SDS011;41907;47.848;9.000;2023-03-05T13:56:11;8.18;;;4.40;;
56037;SDS011;41907;47.848;9.000;2023-03-05T13:58:44;8.48;;;4.35;;
56037;SDS011;41907;47.848;9.000;2023-03-05T14:01:33;10.82;;;4.38;;
56037;SDS011;41907;47.848;9.000;2023-03-05T14:06:48;8.65;;;4.70;;
56037;SDS011;41907;47.848;9.000;2023-03-05T14:09:30;6.60;;;3.60;;
56037;SDS011;41907;47.848;9.000;2023-03-05T14:12:30;7.97;;;4.82;;
56037;SDS011;41907;47.848;9.000;2023-03-05T14:14:58;10.90;;;4.70;;
56037;SDS011;41907;47.848;9.000;2023-03-05T14:19:51;10.18;;;4.55;;
56037;SDS011;41907;47.848;9.000;2023-03-05T14:22:30;7.72;;;4.63;;
56037;SDS011;41907;47.848;9.000;2023-03-05T14:25:01;9.10;;;4.20;;
56037;SDS011;41907;47.848;9.000;2023-03-05T14:27:30;9.27;;;4.63;;
56037;SDS011;41907;47.848;9.000;2023-03-05T14:29:58;8.35;;;3.67;;
56037;SDS011;41907;47.848;9.000;2023-03-05T14:32:27;7.60;;;4.38;;
56037;SDS011;41907;47.848;9.000;2023-03-05T14:34:57;9.15;;;4.57;;
56037;SDS011;41907;47.848;9.000;2023-03-05T14:39:59;8.18;;;4.28;;
56037;SDS011;41907;47.848;9.000;2023-03-05T14:42:30;8.05;;;5.13;;
56037;SDS011;41907;47.848;9.000;2023-03-05T14:45:16;8.80;;;4.45;;
56037;SDS011;41907;47.848;9.000;2023-03-05T14:47:45;9.32;;;4.50;;
56037;SDS011;41907;47.848;9.000;2023-03-05T14:50:31;6.53;;;4.07;;
56037;SDS011;41907;47.848;9.000;2023-03-05T14:55:26;7.43;;;4.07;;
56037;SDS011;41907;47.848;9.000;2023-03-05T14:57:56;9.13;;;4.45;;
56037;SDS011;41907;47.848;9.000;2023-03-05T15:00:31;6.78;;;3.90;;
56037;SDS011;41907;47.848;9.000;2023-03-05T15:02:56;7.75;;;4.60;;
56037;SDS011;41907;47.848;9.000;2023-03-05T15:05:22;9.00;;;4.65;;
56037;SDS011;41907;47.848;9.000;2023-03-05T15:07:48;7.35;;;4.43;;
56037;SDS011;41907;47.848;9.000;2023-03-05T15:10:15;8.75;;;3.90;;
56037;SDS011;41907;47.848;9.000;2023-03-05T15:12:42;6.95;;;4.03;;
56037;SDS011;41907;47.848;9.000;2023-03-05T15:15:12;8.68;;;4.10;;
56037;SDS011;41907;47.848;9.000;2023-03-05T15:17:39;8.15;;;3.95;;
56037;SDS011;41907;47.848;9.000;2023-03-05T15:20:13;8.63;;;4.78;;
56037;SDS011;41907;47.848;9.000;2023-03-05T15:22:40;6.88;;;4.00;;
56037;SDS011;41907;47.848;9.000;2023-03-05T15:25:05;6.70;;;4.00;;
56037;SDS011;41907;47.848;9.000;2023-03-05T15:27:31;8.13;;;4.10;;
56037;SDS011;41907;47.848;9.000;2023-03-05T15:29:56;7.32;;;4.18;;
56037;SDS011;41907;47.848;9.000;2023-03-05T15:32:24;7.47;;;4.05;;
56037;SDS011;41907;47.848;9.000;2023-03-05T15:34:51;10.40;;;4.40;;
56037;SDS011;41907;47.848;9.000;2023-03-05T15:37:17;7.32;;;4.05;;
56037;SDS011;41907;47.848;9.000;2023-03-05T15:39:42;8.35;;;3.97;;
56037;SDS011;41907;47.848;9.000;2023-03-05T15:42:07;8.15;;;4.22;;
56037;SDS011;41907;47.848;9.000;2023-03-05T15:44:33;7.80;;;4.45;;
56037;SDS011;41907;47.848;9.000;2023-03-05T15:46:58;9.65;;;4.55;;
56037;SDS011;41907;47.848;9.000;2023-03-05T15:49:23;9.50;;;5.10;;
56037;SDS011;41907;47.848;9.000;2023-03-05T15:51:49;7.90;;;4.50;;
56037;SDS011;41907;47.848;9.000;2023-03-05T15:54:15;8.35;;;4.70;;
56037;SDS011;41907;47.848;9.000;2023-03-05T15:56:41;7.00;;;4.30;;
56037;SDS011;41907;47.848;9.000;2023-03-05T15:59:07;9.60;;;5.22;;
56037;SDS011;41907;47.848;9.000;2023-03-05T16:01:34;12.77;;;5.63;;
56037;SDS011;41907;47.848;9.000;2023-03-05T16:04:01;9.77;;;5.60;;